Date,TemperatureHighF,TemperatureAvgF,TemperatureLowF,DewpointHighF,DewpointAvgF,DewpointLowF,HumidityHigh,HumidityAvg,HumidityLow,PressureMaxIn,PressureMinIn,WindSpeedMaxMPH,WindSpeedAvgMPH,GustSpeedMaxMPH,PrecipitationSumIn
2013-1-1,64,56,52,51,46,41,83,69,58,30.23,30.12,24,11,24,0.00
2013-1-2,58,51,45,50,43,39,86,73,57,30.44,30.20,22,5,22,0.07
2013-1-3,58,51,45,52,45,36,90,80,66,30.75,30.43,24,10,24,0.06
2013-1-4,62,54,47,52,47,44,89,78,58,30.75,30.61,21,8,21,0.01
2013-1-5,63,57,54,55,52,45,93,85,69,30.62,30.40,19,8,19,0.00
2013-1-6,70,58,51,55,47,35,91,69,34,30.46,30.38,12,4,12,0.00
2013-1-7,63,58,55,56,53,48,94,85,74,30.40,30.30,17,9,17,0.00
2013-1-8,64,55,47,57,51,45,96,88,73,30.44,30.36,15,4,15,0.01
2013-1-9,62,54,50,54,48,42,94,81,66,30.40,30.26,27,8,27,0.01
2013-1-10,64,58,53,53,49,42,89,74,47,30.27,30.19,27,11,27,0.00
2013-1-11,66,56,48,54,46,34,93,72,46,30.28,30.20,21,6,21,0.00
2013-1-12,66,55,47,54,48,41,92,80,65,30.26,30.06,33,8,33,0.00
2013-1-13,61,54,49,53,43,32,87,65,41,30.06,29.89,36,15,36,0.00
2013-1-14,58,51,44,44,39,36,80,65,47,30.12,30.02,19,6,19,0.00
2013-1-15,57,52,48,47,41,36,76,65,56,30.09,29.93,41,14,41,0.04
2013-1-16,60,55,51,50,45,36,78,71,54,30.04,29.75,42,19,42,0.00
2013-1-17,58,53,47,51,43,37,84,71,49,29.94,29.75,28,10,28,0.00
2013-1-18,63,57,53,55,49,38,90,77,55,29.91,29.63,24,8,24,0.00
2013-1-19,65,58,51,57,53,46,94,85,71,29.64,29.20,41,20,41,0.19
2013-1-20,59,54,50,51,43,36,87,68,52,29.73,29.22,40,14,40,0.02
2013-1-21,58,55,52,49,41,27,77,61,40,29.98,29.66,34,16,34,0.00
2013-1-22,59,52,45,49,38,29,89,59,44,29.99,29.65,53,16,53,0.06
2013-1-23,54,50,44,44,33,28,91,53,42,29.93,29.67,46,20,53,0.04
2013-1-24,59,51,45,52,41,29,89,70,42,29.92,29.64,37,14,37,0.14
2013-1-25,57,50,41,41,37,34,82,63,47,30.05,29.87,25,8,25,0.00
2013-1-26,58,52,45,47,43,36,87,71,53,30.23,29.86,24,9,24,0.01
2013-1-27,64,54,44,55,50,41,93,87,74,30.23,29.98,20,9,20,0.00
2013-1-28,64,54,47,56,45,39,93,74,48,30.44,29.95,30,10,30,0.06
2013-1-29,63,53,44,52,46,37,89,77,61,30.50,30.42,12,4,12,0.00
2013-1-30,62,55,49,53,46,40,91,74,67,30.47,30.40,14,6,14,0.01
2013-1-31,70,59,50,53,45,41,77,62,40,30.56,30.46,10,4,10,0.00